sensor_id;sensor_type;location;lat;lon;timestamp;P1;durP1;ratioP1;P2;durP2;ratioP2
17696;SDS011;8967;47.984;7.842;2022-11-15T00:01:24;2.65;;;2.22;;
17696;SDS011;8967;47.984;7.842;2022-11-15T00:04:10;3.13;;;2.47;;
17696;SDS011;8967;47.984;7.842;2022-11-15T00:06:55;4.03;;;2.55;;
17696;SDS011;8967;47.984;7.842;2022-11-15T00:09:41;3.63;;;2.42;;
17696;SDS011;8967;47.984;7.842;2022-11-15T00:12:28;3.88;;;2.65;;
17696;SDS011;8967;47.984;7.842;2022-11-15T00:15:13;6.32;;;2.40;;
17696;SDS011;8967;47.984;7.842;2022-11-15T00:17:59;3.17;;;2.30;;
17696;SDS011;8967;47.984;7.842;2022-11-15T00:20:44;2.72;;;2.35;;
17696;SDS011;8967;47.984;7.842;2022-11-15T00:23:30;4.28;;;2.42;;
17696;SDS011;8967;47.984;7.842;2022-11-15T00:26:16;4.10;;;2.40;;
17696;SDS011;8967;47.984;7.842;2022-11-15T00:29:03;2.40;;;2.15;;
17696;SDS011;8967;47.984;7.842;2022-11-15T00:31:49;6.05;;;2.10;;
17696;SDS011;8967;47.984;7.842;2022-11-15T00:34:35;3.30;;;2.20;;
17696;SDS011;8967;47.984;7.842;2022-11-15T00:37:20;6.80;;;2.17;;
17696;SDS011;8967;47.984;7.842;2022-11-15T00:40:06;4.57;;;2.58;;
17696;SDS011;8967;47.984;7.842;2022-11-15T00:42:53;2.45;;;2.20;;
17696;SDS011;8967;47.984;7.842;2022-11-15T00:45:40;5.63;;;2.20;;
17696;SDS011;8967;47.984;7.842;2022-11-15T00:48:25;3.28;;;2.15;;
17696;SDS011;8967;47.984;7.842;2022-11-15T00:51:10;4.90;;;2.28;;
17696;SDS011;8967;47.984;7.842;2022-11-15T00:53:56;5.40;;;1.77;;
17696;SDS011;8967;47.984;7.842;2022-11-15T00:56:41;3.55;;;2.10;;
17696;SDS011;8967;47.984;7.842;2022-11-15T00:59:27;3.65;;;2.13;;
17696;SDS011;8967;47.984;7.842;2022-11-15T01:02:14;2.97;;;1.95;;
17696;SDS011;8967;47.984;7.842;2022-11-15T01:04:59;4.93;;;1.95;;
17696;SDS011;8967;47.984;7.842;2022-11-15T01:07:45;2.30;;;2.08;;
17696;SDS011;8967;47.984;7.842;2022-11-15T01:10:31;3.35;;;2.17;;
17696;SDS011;8967;47.984;7.842;2022-11-15T01:13:18;2.90;;;2.03;;
17696;SDS011;8967;47.984;7.842;2022-11-15T01:16:07;2.28;;;2.00;;
17696;SDS011;8967;47.984;7.842;2022-11-15T01:18:55;4.28;;;2.00;;
17696;SDS011;8967;47.984;7.842;2022-11-15T01:21:40;3.17;;;1.75;;
17696;SDS011;8967;47.984;7.842;2022-11-15T01:24:26;2.10;;;1.90;;
17696;SDS011;8967;47.984;7.842;2022-11-15T01:27:12;3.45;;;2.17;;
17696;SDS011;8967;47.984;7.842;2022-11-15T01:29:57;2.30;;;2.00;;
17696;SDS011;8967;47.984;7.842;2022-11-15T01:32:43;3.05;;;1.90;;
17696;SDS011;8967;47.984;7.842;2022-11-15T01:35:30;4.35;;;2.20;;
17696;SDS011;8967;47.984;7.842;2022-11-15T01:38:15;3.50;;;2.13;;
17696;SDS011;8967;47.984;7.842;2022-11-15T01:41:01;2.75;;;1.63;;
17696;SDS011;8967;47.984;7.842;2022-11-15T01:43:48;6.18;;;1.83;;
17696;SDS011;8967;47.984;7.842;2022-11-15T01:46:36;2.22;;;1.85;;
17696;SDS011;8967;47.984;7.842;2022-11-15T01:49:23;2.33;;;1.80;;
17696;SDS011;8967;47.984;7.842;2022-11-15T01:52:12;2.55;;;1.73;;
17696;SDS011;8967;47.984;7.842;2022-11-15T01:55:02;3.22;;;1.67;;
17696;SDS011;8967;47.984;7.842;2022-11-15T01:57:51;1.95;;;1.50;;
17696;SDS011;8967;47.984;7.842;2022-11-15T02:00:39;2.55;;;1.40;;
17696;SDS011;8967;47.984;7.842;2022-11-15T02:03:26;1.65;;;1.30;;
17696;SDS011;8967;47.984;7.842;2022-11-15T02:06:19;1.50;;;1.40;;
17696;SDS011;8967;47.984;7.842;2022-11-15T02:09:08;1.63;;;1.52;;
17696;SDS011;8967;47.984;7.842;2022-11-15T02:11:53;2.65;;;1.60;;
17696;SDS011;8967;47.984;7.842;2022-11-15T02:14:40;3.83;;;1.33;;
17696;SDS011;8967;47.984;7.842;2022-11-15T02:17:33;1.52;;;1.40;;
17696;SDS011;8967;47.984;7.842;2022-11-15T02:20:35;2.88;;;1.17;;
17696;SDS011;8967;47.984;7.842;2022-11-15T02:27:04;2.38;;;1.30;;
17696;SDS011;8967;47.984;7.842;2022-11-15T02:30:23;1.45;;;1.30;;
17696;SDS011;8967;47.984;7.842;2022-11-15T02:33:14;1.52;;;1.38;;
17696;SDS011;8967;47.984;7.842;2022-11-15T02:36:11;1.98;;;1.23;;
17696;SDS011;8967;47.984;7.842;2022-11-15T02:39:04;1.52;;;1.25;;
17696;SDS011;8967;47.984;7.842;2022-11-15T02:41:57;1.80;;;1.30;;
17696;SDS011;8967;47.984;7.842;2022-11-15T02:44:46;3.92;;;1.10;;
17696;SDS011;8967;47.984;7.842;2022-11-15T02:47:35;1.83;;;1.05;;
17696;SDS011;8967;47.984;7.842;2022-11-15T02:50:27;1.10;;;1.10;;
17696;SDS011;8967;47.984;7.842;2022-11-15T02:53:14;1.10;;;1.00;;
17696;SDS011;8967;47.984;7.842;2022-11-15T02:56:00;1.10;;;1.00;;
17696;SDS011;8967;47.984;7.842;2022-11-15T02:58:48;1.10;;;1.00;;
17696;SDS011;8967;47.984;7.842;2022-11-15T03:01:46;1.15;;;1.05;;
17696;SDS011;8967;47.984;7.842;2022-11-15T03:04:47;0.93;;;0.85;;
17696;SDS011;8967;47.984;7.842;2022-11-15T03:07:39;0.82;;;0.77;;
17696;SDS011;8967;47.984;7.842;2022-11-15T03:10:32;1.38;;;0.90;;
17696;SDS011;8967;47.984;7.842;2022-11-15T03:13:27;0.90;;;0.90;;
17696;SDS011;8967;47.984;7.842;2022-11-15T03:16:22;1.00;;;0.93;;
17696;SDS011;8967;47.984;7.842;2022-11-15T03:19:16;0.82;;;0.80;;
17696;SDS011;8967;47.984;7.842;2022-11-15T03:22:08;1.05;;;0.90;;
17696;SDS011;8967;47.984;7.842;2022-11-15T03:25:00;1.45;;;1.17;;
17696;SDS011;8967;47.984;7.842;2022-11-15T03:27:49;1.35;;;0.82;;
17696;SDS011;8967;47.984;7.842;2022-11-15T03:30:36;1.20;;;1.05;;
17696;SDS011;8967;47.984;7.842;2022-11-15T03:33:24;2.55;;;0.98;;
17696;SDS011;8967;47.984;7.842;2022-11-15T03:36:11;1.92;;;0.82;;
17696;SDS011;8967;47.984;7.842;2022-11-15T03:38:59;1.60;;;1.08;;
17696;SDS011;8967;47.984;7.842;2022-11-15T03:41:51;1.38;;;1.05;;
17696;SDS011;8967;47.984;7.842;2022-11-15T03:44:43;2.28;;;1.25;;
17696;SDS011;8967;47.984;7.842;2022-11-15T03:47:34;2.03;;;0.93;;
17696;SDS011;8967;47.984;7.842;2022-11-15T03:50:23;2.50;;;1.25;;
17696;SDS011;8967;47.984;7.842;2022-11-15T03:53:10;1.27;;;1.15;;
17696;SDS011;8967;47.984;7.842;2022-11-15T03:55:58;1.10;;;1.10;;
17696;SDS011;8967;47.984;7.842;2022-11-15T03:58:43;1.27;;;1.17;;
17696;SDS011;8967;47.984;7.842;2022-11-15T04:01:28;2.10;;;1.10;;
17696;SDS011;8967;47.984;7.842;2022-11-15T04:04:14;1.45;;;1.15;;
17696;SDS011;8967;47.984;7.842;2022-11-15T04:07:00;2.35;;;1.40;;
17696;SDS011;8967;47.984;7.842;2022-11-15T04:09:45;2.63;;;1.40;;
17696;SDS011;8967;47.984;7.842;2022-11-15T04:12:50;5.50;;;1.55;;
17696;SDS011;8967;47.984;7.842;2022-11-15T04:15:36;2.90;;;1.83;;
17696;SDS011;8967;47.984;7.842;2022-11-15T04:18:22;2.00;;;1.45;;
17696;SDS011;8967;47.984;7.842;2022-11-15T04:21:07;3.08;;;1.73;;
17696;SDS011;8967;47.984;7.842;2022-11-15T04:24:11;2.55;;;1.52;;
17696;SDS011;8967;47.984;7.842;2022-11-15T04:26:57;1.92;;;1.60;;
17696;SDS011;8967;47.984;7.842;2022-11-15T04:29:44;2.55;;;2.15;;
17696;SDS011;8967;47.984;7.842;2022-11-15T04:32:29;2.10;;;1.90;;
17696;SDS011;8967;47.984;7.842;2022-11-15T04:35:15;3.15;;;2.20;;
17696;SDS011;8967;47.984;7.842;2022-11-15T04:38:01;3.95;;;2.00;;
17696;SDS011;8967;47.984;7.842;2022-11-15T04:40:48;4.28;;;2.80;;
17696;SDS011;8967;47.984;7.842;2022-11-15T04:43:34;3.95;;;2.30;;
17696;SDS011;8967;47.984;7.842;2022-11-15T04:46:21;3.20;;;2.42;;
17696;SDS011;8967;47.984;7.842;2022-11-15T04:49:07;4.45;;;2.15;;
17696;SDS011;8967;47.984;7.842;2022-11-15T04:51:53;3.47;;;2.10;;
17696;SDS011;8967;47.984;7.842;2022-11-15T04:54:38;2.40;;;1.67;;
17696;SDS011;8967;47.984;7.842;2022-11-15T04:57:25;3.03;;;2.03;;
17696;SDS011;8967;47.984;7.842;2022-11-15T05:00:12;3.08;;;1.98;;
17696;SDS011;8967;47.984;7.842;2022-11-15T05:03:02;3.85;;;2.20;;
17696;SDS011;8967;47.984;7.842;2022-11-15T05:06:05;3.17;;;2.05;;
17696;SDS011;8967;47.984;7.842;2022-11-15T05:08:51;4.40;;;2.03;;
17696;SDS011;8967;47.984;7.842;2022-11-15T05:11:37;3.83;;;2.53;;
17696;SDS011;8967;47.984;7.842;2022-11-15T05:14:23;3.33;;;2.00;;
17696;SDS011;8967;47.984;7.842;2022-11-15T05:17:08;3.03;;;2.13;;
17696;SDS011;8967;47.984;7.842;2022-11-15T05:19:55;2.78;;;1.77;;
17696;SDS011;8967;47.984;7.842;2022-11-15T05:22:41;2.70;;;2.13;;
17696;SDS011;8967;47.984;7.842;2022-11-15T05:25:26;5.50;;;2.28;;
17696;SDS011;8967;47.984;7.842;2022-11-15T05:28:12;2.53;;;2.10;;
17696;SDS011;8967;47.984;7.842;2022-11-15T05:31:00;2.80;;;1.90;;
17696;SDS011;8967;47.984;7.842;2022-11-15T05:33:45;2.50;;;2.00;;
17696;SDS011;8967;47.984;7.842;2022-11-15T05:36:33;1.77;;;1.67;;
17696;SDS011;8967;47.984;7.842;2022-11-15T05:39:21;3.53;;;2.40;;
17696;SDS011;8967;47.984;7.842;2022-11-15T05:42:07;3.38;;;2.20;;
17696;SDS011;8967;47.984;7.842;2022-11-15T05:44:55;2.53;;;2.20;;
17696;SDS011;8967;47.984;7.842;2022-11-15T05:47:42;3.58;;;2.03;;
17696;SDS011;8967;47.984;7.842;2022-11-15T05:50:29;2.85;;;2.03;;
17696;SDS011;8967;47.984;7.842;2022-11-15T05:53:17;3.75;;;2.20;;
17696;SDS011;8967;47.984;7.842;2022-11-15T05:56:05;3.92;;;2.00;;
17696;SDS011;8967;47.984;7.842;2022-11-15T05:58:51;3.50;;;2.10;;
17696;SDS011;8967;47.984;7.842;2022-11-15T06:01:38;2.08;;;1.85;;
17696;SDS011;8967;47.984;7.842;2022-11-15T06:04:24;2.60;;;1.85;;
17696;SDS011;8967;47.984;7.842;2022-11-15T06:07:10;3.80;;;2.70;;
17696;SDS011;8967;47.984;7.842;2022-11-15T06:09:57;2.47;;;2.20;;
17696;SDS011;8967;47.984;7.842;2022-11-15T06:12:43;4.28;;;2.20;;
17696;SDS011;8967;47.984;7.842;2022-11-15T06:15:28;3.95;;;2.22;;
17696;SDS011;8967;47.984;7.842;2022-11-15T06:18:14;3.92;;;2.33;;
17696;SDS011;8967;47.984;7.842;2022-11-15T06:21:00;1.98;;;1.85;;
17696;SDS011;8967;47.984;7.842;2022-11-15T06:23:45;4.13;;;2.95;;
17696;SDS011;8967;47.984;7.842;2022-11-15T06:26:32;2.40;;;1.77;;
17696;SDS011;8967;47.984;7.842;2022-11-15T06:29:18;3.67;;;2.00;;
17696;SDS011;8967;47.984;7.842;2022-11-15T06:32:04;3.45;;;2.40;;
17696;SDS011;8967;47.984;7.842;2022-11-15T06:34:49;4.50;;;2.33;;
17696;SDS011;8967;47.984;7.842;2022-11-15T06:37:35;6.40;;;2.70;;
17696;SDS011;8967;47.984;7.842;2022-11-15T06:40:20;3.97;;;2.50;;
17696;SDS011;8967;47.984;7.842;2022-11-15T06:43:08;5.93;;;3.60;;
17696;SDS011;8967;47.984;7.842;2022-11-15T06:45:53;3.17;;;2.42;;
17696;SDS011;8967;47.984;7.842;2022-11-15T06:48:39;3.47;;;2.40;;
17696;SDS011;8967;47.984;7.842;2022-11-15T06:51:24;4.03;;;2.67;;
17696;SDS011;8967;47.984;7.842;2022-11-15T06:54:10;2.58;;;2.20;;
17696;SDS011;8967;47.984;7.842;2022-11-15T06:56:56;3.13;;;2.25;;
17696;SDS011;8967;47.984;7.842;2022-11-15T06:59:43;3.72;;;2.38;;
17696;SDS011;8967;47.984;7.842;2022-11-15T07:02:28;2.33;;;2.13;;
17696;SDS011;8967;47.984;7.842;2022-11-15T07:05:14;4.28;;;2.30;;
17696;SDS011;8967;47.984;7.842;2022-11-15T07:08:00;2.53;;;2.05;;
17696;SDS011;8967;47.984;7.842;2022-11-15T07:10:45;2.40;;;1.75;;
17696;SDS011;8967;47.984;7.842;2022-11-15T07:13:31;2.25;;;2.05;;
17696;SDS011;8967;47.984;7.842;2022-11-15T07:16:18;3.92;;;1.83;;
17696;SDS011;8967;47.984;7.842;2022-11-15T07:19:04;2.70;;;1.92;;
17696;SDS011;8967;47.984;7.842;2022-11-15T07:21:49;2.42;;;1.70;;
17696;SDS011;8967;47.984;7.842;2022-11-15T07:24:35;2.13;;;1.85;;
17696;SDS011;8967;47.984;7.842;2022-11-15T07:27:21;2.60;;;1.63;;
17696;SDS011;8967;47.984;7.842;2022-11-15T07:30:07;2.22;;;1.70;;
17696;SDS011;8967;47.984;7.842;2022-11-15T07:32:55;2.78;;;1.70;;
17696;SDS011;8967;47.984;7.842;2022-11-15T07:35:41;1.80;;;1.30;;
17696;SDS011;8967;47.984;7.842;2022-11-15T07:38:30;2.95;;;2.20;;
17696;SDS011;8967;47.984;7.842;2022-11-15T07:41:15;1.90;;;1.70;;
17696;SDS011;8967;47.984;7.842;2022-11-15T07:44:01;3.38;;;2.03;;
17696;SDS011;8967;47.984;7.842;2022-11-15T07:46:46;3.78;;;2.60;;
17696;SDS011;8967;47.984;7.842;2022-11-15T07:49:34;3.25;;;2.15;;
17696;SDS011;8967;47.984;7.842;2022-11-15T07:52:19;2.75;;;2.30;;
17696;SDS011;8967;47.984;7.842;2022-11-15T07:55:05;3.40;;;2.30;;
17696;SDS011;8967;47.984;7.842;2022-11-15T07:57:52;5.82;;;2.40;;
17696;SDS011;8967;47.984;7.842;2022-11-15T08:00:37;3.72;;;3.08;;
17696;SDS011;8967;47.984;7.842;2022-11-15T08:03:23;5.25;;;2.78;;
17696;SDS011;8967;47.984;7.842;2022-11-15T08:06:10;3.35;;;2.50;;
17696;SDS011;8967;47.984;7.842;2022-11-15T08:08:55;4.07;;;2.80;;
17696;SDS011;8967;47.984;7.842;2022-11-15T08:11:41;3.33;;;2.83;;
17696;SDS011;8967;47.984;7.842;2022-11-15T08:14:26;3.95;;;3.20;;
17696;SDS011;8967;47.984;7.842;2022-11-15T08:17:12;3.30;;;3.00;;
17696;SDS011;8967;47.984;7.842;2022-11-15T08:19:58;4.20;;;3.00;;
17696;SDS011;8967;47.984;7.842;2022-11-15T08:22:44;5.47;;;3.03;;
17696;SDS011;8967;47.984;7.842;2022-11-15T08:25:30;4.03;;;3.15;;
17696;SDS011;8967;47.984;7.842;2022-11-15T08:28:16;5.50;;;3.15;;
17696;SDS011;8967;47.984;7.842;2022-11-15T08:31:49;3.95;;;2.85;;
17696;SDS011;8967;47.984;7.842;2022-11-15T08:34:34;7.30;;;3.58;;
17696;SDS011;8967;47.984;7.842;2022-11-15T08:37:20;6.18;;;3.40;;
17696;SDS011;8967;47.984;7.842;2022-11-15T08:40:06;4.30;;;3.20;;
17696;SDS011;8967;47.984;7.842;2022-11-15T08:42:52;7.82;;;3.70;;
17696;SDS011;8967;47.984;7.842;2022-11-15T08:45:38;6.55;;;3.28;;
17696;SDS011;8967;47.984;7.842;2022-11-15T08:48:25;3.65;;;2.95;;
17696;SDS011;8967;47.984;7.842;2022-11-15T08:51:10;6.57;;;3.20;;
17696;SDS011;8967;47.984;7.842;2022-11-15T08:53:56;10.52;;;3.22;;
17696;SDS011;8967;47.984;7.842;2022-11-15T08:56:42;5.13;;;2.75;;
17696;SDS011;8967;47.984;7.842;2022-11-15T08:59:27;4.10;;;3.03;;
17696;SDS011;8967;47.984;7.842;2022-11-15T09:02:13;4.30;;;3.15;;
17696;SDS011;8967;47.984;7.842;2022-11-15T09:05:00;5.53;;;3.30;;
17696;SDS011;8967;47.984;7.842;2022-11-15T09:07:46;6.47;;;3.55;;
17696;SDS011;8967;47.984;7.842;2022-11-15T09:10:31;4.20;;;3.03;;
17696;SDS011;8967;47.984;7.842;2022-11-15T09:13:17;5.40;;;3.35;;
17696;SDS011;8967;47.984;7.842;2022-11-15T09:16:03;4.95;;;2.80;;
17696;SDS011;8967;47.984;7.842;2022-11-15T09:18:48;7.32;;;3.60;;
17696;SDS011;8967;47.984;7.842;2022-11-15T09:21:35;5.22;;;3.08;;
17696;SDS011;8967;47.984;7.842;2022-11-15T09:24:21;5.13;;;3.15;;
17696;SDS011;8967;47.984;7.842;2022-11-15T09:27:06;5.22;;;2.70;;
17696;SDS011;8967;47.984;7.842;2022-11-15T09:29:52;8.13;;;2.97;;
17696;SDS011;8967;47.984;7.842;2022-11-15T09:32:38;3.72;;;2.65;;
17696;SDS011;8967;47.984;7.842;2022-11-15T09:35:23;4.68;;;2.60;;
17696;SDS011;8967;47.984;7.842;2022-11-15T09:38:10;5.95;;;2.45;;
17696;SDS011;8967;47.984;7.842;2022-11-15T09:40:59;6.50;;;3.28;;
17696;SDS011;8967;47.984;7.842;2022-11-15T09:44:07;5.88;;;3.35;;
17696;SDS011;8967;47.984;7.842;2022-11-15T09:47:06;6.03;;;3.28;;
17696;SDS011;8967;47.984;7.842;2022-11-15T09:50:08;4.32;;;2.92;;
17696;SDS011;8967;47.984;7.842;2022-11-15T09:52:39;8.18;;;3.40;;
17696;SDS011;8967;47.984;7.842;2022-11-15T09:55:11;9.98;;;3.90;;
17696;SDS011;8967;47.984;7.842;2022-11-15T09:57:48;6.63;;;4.30;;
17696;SDS011;8967;47.984;7.842;2022-11-15T10:00:21;5.68;;;4.30;;
17696;SDS011;8967;47.984;7.842;2022-11-15T10:03:06;5.55;;;3.67;;
17696;SDS011;8967;47.984;7.842;2022-11-15T10:05:37;4.82;;;3.47;;
17696;SDS011;8967;47.984;7.842;2022-11-15T10:08:11;5.38;;;3.97;;
17696;SDS011;8967;47.984;7.842;2022-11-15T10:10:59;8.95;;;4.32;;
17696;SDS011;8967;47.984;7.842;2022-11-15T10:13:30;6.28;;;3.78;;
17696;SDS011;8967;47.984;7.842;2022-11-15T10:16:01;4.68;;;3.58;;
17696;SDS011;8967;47.984;7.842;2022-11-15T10:18:34;6.13;;;3.63;;
17696;SDS011;8967;47.984;7.842;2022-11-15T10:21:10;4.30;;;3.33;;
17696;SDS011;8967;47.984;7.842;2022-11-15T10:23:43;11.85;;;3.28;;
17696;SDS011;8967;47.984;7.842;2022-11-15T10:26:12;6.28;;;3.47;;
17696;SDS011;8967;47.984;7.842;2022-11-15T10:28:42;4.53;;;3.00;;
17696;SDS011;8967;47.984;7.842;2022-11-15T10:31:20;5.88;;;3.70;;
17696;SDS011;8967;47.984;7.842;2022-11-15T10:33:51;7.55;;;3.53;;
17696;SDS011;8967;47.984;7.842;2022-11-15T10:36:36;3.35;;;2.78;;
17696;SDS011;8967;47.984;7.842;2022-11-15T10:39:03;3.75;;;2.47;;
17696;SDS011;8967;47.984;7.842;2022-11-15T10:41:39;4.03;;;3.10;;
17696;SDS011;8967;47.984;7.842;2022-11-15T10:44:11;4.30;;;3.03;;
17696;SDS011;8967;47.984;7.842;2022-11-15T10:50:00;3.25;;;2.58;;
17696;SDS011;8967;47.984;7.842;2022-11-15T10:52:30;4.43;;;3.13;;
17696;SDS011;8967;47.984;7.842;2022-11-15T10:55:00;3.35;;;2.28;;
17696;SDS011;8967;47.984;7.842;2022-11-15T10:57:32;4.43;;;2.85;;
17696;SDS011;8967;47.984;7.842;2022-11-15T11:00:04;4.10;;;2.40;;
17696;SDS011;8967;47.984;7.842;2022-11-15T11:02:34;4.57;;;2.60;;
17696;SDS011;8967;47.984;7.842;2022-11-15T11:05:04;3.97;;;2.60;;
17696;SDS011;8967;47.984;7.842;2022-11-15T11:07:33;2.80;;;2.30;;
17696;SDS011;8967;47.984;7.842;2022-11-15T11:10:03;2.42;;;2.22;;
17696;SDS011;8967;47.984;7.842;2022-11-15T11:12:34;2.58;;;1.73;;
17696;SDS011;8967;47.984;7.842;2022-11-15T11:15:05;2.90;;;1.95;;
17696;SDS011;8967;47.984;7.842;2022-11-15T11:17:45;3.33;;;2.17;;
17696;SDS011;8967;47.984;7.842;2022-11-15T11:20:25;2.05;;;1.70;;
17696;SDS011;8967;47.984;7.842;2022-11-15T11:23:12;2.42;;;1.50;;
17696;SDS011;8967;47.984;7.842;2022-11-15T11:25:55;1.55;;;1.45;;
17696;SDS011;8967;47.984;7.842;2022-11-15T11:28:36;1.60;;;1.50;;
17696;SDS011;8967;47.984;7.842;2022-11-15T11:31:21;2.38;;;1.70;;
17696;SDS011;8967;47.984;7.842;2022-11-15T11:33:58;2.97;;;1.88;;
17696;SDS011;8967;47.984;7.842;2022-11-15T11:36:35;3.00;;;2.20;;
17696;SDS011;8967;47.984;7.842;2022-11-15T11:39:14;3.65;;;1.80;;
17696;SDS011;8967;47.984;7.842;2022-11-15T11:41:53;4.10;;;3.00;;
17696;SDS011;8967;47.984;7.842;2022-11-15T11:44:32;3.30;;;2.40;;
17696;SDS011;8967;47.984;7.842;2022-11-15T11:47:07;2.92;;;2.58;;
17696;SDS011;8967;47.984;7.842;2022-11-15T11:49:39;4.13;;;2.25;;
17696;SDS011;8967;47.984;7.842;2022-11-15T11:52:13;4.13;;;1.90;;
17696;SDS011;8967;47.984;7.842;2022-11-15T11:54:50;5.40;;;2.10;;
17696;SDS011;8967;47.984;7.842;2022-11-15T11:57:28;1.45;;;1.30;;
17696;SDS011;8967;47.984;7.842;2022-11-15T12:00:03;1.83;;;1.50;;
17696;SDS011;8967;47.984;7.842;2022-11-15T12:02:41;1.77;;;1.30;;
17696;SDS011;8967;47.984;7.842;2022-11-15T12:05:12;2.75;;;2.00;;
17696;SDS011;8967;47.984;7.842;2022-11-15T12:07:44;4.30;;;2.42;;
17696;SDS011;8967;47.984;7.842;2022-11-15T12:10:17;3.60;;;2.22;;
17696;SDS011;8967;47.984;7.842;2022-11-15T12:12:50;3.95;;;1.60;;
17696;SDS011;8967;47.984;7.842;2022-11-15T12:15:25;2.63;;;1.58;;
17696;SDS011;8967;47.984;7.842;2022-11-15T12:17:57;1.55;;;1.45;;
17696;SDS011;8967;47.984;7.842;2022-11-15T12:20:26;1.70;;;1.38;;
17696;SDS011;8967;47.984;7.842;2022-11-15T12:23:01;2.55;;;1.55;;
17696;SDS011;8967;47.984;7.842;2022-11-15T12:25:35;1.52;;;1.38;;
17696;SDS011;8967;47.984;7.842;2022-11-15T12:28:14;1.10;;;1.00;;
17696;SDS011;8967;47.984;7.842;2022-11-15T12:30:46;1.60;;;1.27;;
17696;SDS011;8967;47.984;7.842;2022-11-15T12:33:30;2.15;;;1.15;;
17696;SDS011;8967;47.984;7.842;2022-11-15T12:36:00;2.95;;;1.63;;
17696;SDS011;8967;47.984;7.842;2022-11-15T12:41:22;2.90;;;1.50;;
17696;SDS011;8967;47.984;7.842;2022-11-15T12:43:50;1.20;;;1.10;;
17696;SDS011;8967;47.984;7.842;2022-11-15T12:46:22;2.78;;;2.03;;
17696;SDS011;8967;47.984;7.842;2022-11-15T12:49:08;3.83;;;2.40;;
17696;SDS011;8967;47.984;7.842;2022-11-15T12:57:47;7.68;;;4.63;;
17696;SDS011;8967;47.984;7.842;2022-11-15T13:03:21;8.95;;;5.07;;
17696;SDS011;8967;47.984;7.842;2022-11-15T13:06:03;7.60;;;4.38;;
17696;SDS011;8967;47.984;7.842;2022-11-15T13:08:36;5.90;;;4.32;;
17696;SDS011;8967;47.984;7.842;2022-11-15T13:17:23;6.63;;;3.60;;
17696;SDS011;8967;47.984;7.842;2022-11-15T13:20:01;5.72;;;3.53;;
17696;SDS011;8967;47.984;7.842;2022-11-15T13:22:51;5.28;;;3.00;;
17696;SDS011;8967;47.984;7.842;2022-11-15T13:25:30;5.18;;;2.70;;
17696;SDS011;8967;47.984;7.842;2022-11-15T13:28:24;4.53;;;2.92;;
17696;SDS011;8967;47.984;7.842;2022-11-15T13:30:57;2.95;;;2.10;;
17696;SDS011;8967;47.984;7.842;2022-11-15T13:33:28;2.10;;;1.88;;
17696;SDS011;8967;47.984;7.842;2022-11-15T13:36:03;2.00;;;1.63;;
17696;SDS011;8967;47.984;7.842;2022-11-15T13:38:33;2.20;;;1.80;;
17696;SDS011;8967;47.984;7.842;2022-11-15T13:41:10;3.92;;;2.17;;
17696;SDS011;8967;47.984;7.842;2022-11-15T13:43:43;2.42;;;1.85;;
17696;SDS011;8967;47.984;7.842;2022-11-15T13:46:11;2.15;;;1.42;;
17696;SDS011;8967;47.984;7.842;2022-11-15T13:48:39;3.88;;;1.52;;
17696;SDS011;8967;47.984;7.842;2022-11-15T13:51:12;3.78;;;1.60;;
17696;SDS011;8967;47.984;7.842;2022-11-15T13:53:51;2.47;;;1.60;;
17696;SDS011;8967;47.984;7.842;2022-11-15T13:56:21;2.17;;;1.75;;
17696;SDS011;8967;47.984;7.842;2022-11-15T13:58:49;2.70;;;1.70;;
17696;SDS011;8967;47.984;7.842;2022-11-15T14:01:17;1.80;;;1.58;;
17696;SDS011;8967;47.984;7.842;2022-11-15T14:03:53;2.53;;;1.80;;
17696;SDS011;8967;47.984;7.842;2022-11-15T14:06:24;3.33;;;1.50;;
17696;SDS011;8967;47.984;7.842;2022-11-15T14:09:01;1.45;;;0.90;;
17696;SDS011;8967;47.984;7.842;2022-11-15T14:11:50;1.13;;;0.90;;
17696;SDS011;8967;47.984;7.842;2022-11-15T14:14:21;1.60;;;0.98;;
17696;SDS011;8967;47.984;7.842;2022-11-15T14:16:50;2.10;;;0.98;;
17696;SDS011;8967;47.984;7.842;2022-11-15T14:19:34;1.17;;;1.02;;
17696;SDS011;8967;47.984;7.842;2022-11-15T14:22:12;1.48;;;1.27;;
17696;SDS011;8967;47.984;7.842;2022-11-15T14:24:41;1.15;;;1.02;;
17696;SDS011;8967;47.984;7.842;2022-11-15T14:27:19;1.25;;;1.15;;
17696;SDS011;8967;47.984;7.842;2022-11-15T14:29:48;2.88;;;1.65;;
17696;SDS011;8967;47.984;7.842;2022-11-15T14:32:16;3.33;;;1.70;;
17696;SDS011;8967;47.984;7.842;2022-11-15T14:34:46;1.45;;;1.33;;
17696;SDS011;8967;47.984;7.842;2022-11-15T14:37:20;3.58;;;2.15;;
17696;SDS011;8967;47.984;7.842;2022-11-15T14:39:49;4.07;;;1.98;;
17696;SDS011;8967;47.984;7.842;2022-11-15T14:42:16;2.70;;;1.40;;
17696;SDS011;8967;47.984;7.842;2022-11-15T14:44:43;3.13;;;1.73;;
17696;SDS011;8967;47.984;7.842;2022-11-15T14:47:10;1.70;;;1.60;;
17696;SDS011;8967;47.984;7.842;2022-11-15T14:49:37;3.58;;;2.20;;
17696;SDS011;8967;47.984;7.842;2022-11-15T14:52:07;2.72;;;2.13;;
17696;SDS011;8967;47.984;7.842;2022-11-15T14:54:46;1.95;;;1.75;;
17696;SDS011;8967;47.984;7.842;2022-11-15T14:57:13;5.30;;;2.05;;
17696;SDS011;8967;47.984;7.842;2022-11-15T14:59:40;3.90;;;2.28;;
17696;SDS011;8967;47.984;7.842;2022-11-15T15:02:08;3.63;;;1.60;;
17696;SDS011;8967;47.984;7.842;2022-11-15T15:04:39;1.85;;;1.65;;
17696;SDS011;8967;47.984;7.842;2022-11-15T15:07:06;2.10;;;1.67;;
17696;SDS011;8967;47.984;7.842;2022-11-15T15:09:33;2.05;;;1.50;;
17696;SDS011;8967;47.984;7.842;2022-11-15T15:12:02;4.25;;;1.88;;
17696;SDS011;8967;47.984;7.842;2022-11-15T15:14:29;3.00;;;1.85;;
17696;SDS011;8967;47.984;7.842;2022-11-15T15:16:56;5.03;;;2.00;;
17696;SDS011;8967;47.984;7.842;2022-11-15T15:19:23;3.78;;;2.35;;
17696;SDS011;8967;47.984;7.842;2022-11-15T15:21:52;6.03;;;2.08;;
17696;SDS011;8967;47.984;7.842;2022-11-15T15:24:19;4.18;;;2.05;;
17696;SDS011;8967;47.984;7.842;2022-11-15T15:26:46;3.28;;;2.42;;
17696;SDS011;8967;47.984;7.842;2022-11-15T15:29:14;4.82;;;3.00;;
17696;SDS011;8967;47.984;7.842;2022-11-15T15:31:43;7.53;;;3.25;;
17696;SDS011;8967;47.984;7.842;2022-11-15T15:34:12;7.85;;;3.97;;
17696;SDS011;8967;47.984;7.842;2022-11-15T15:36:39;9.02;;;5.10;;
17696;SDS011;8967;47.984;7.842;2022-11-15T15:39:07;7.32;;;4.70;;
17696;SDS011;8967;47.984;7.842;2022-11-15T15:41:36;9.32;;;4.57;;
17696;SDS011;8967;47.984;7.842;2022-11-15T15:44:05;6.85;;;4.90;;
17696;SDS011;8967;47.984;7.842;2022-11-15T15:46:33;8.60;;;5.15;;
17696;SDS011;8967;47.984;7.842;2022-11-15T15:49:03;14.73;;;7.93;;
17696;SDS011;8967;47.984;7.842;2022-11-15T15:51:30;12.07;;;7.00;;
17696;SDS011;8967;47.984;7.842;2022-11-15T15:53:57;10.98;;;5.75;;
17696;SDS011;8967;47.984;7.842;2022-11-15T15:56:24;10.32;;;6.47;;
17696;SDS011;8967;47.984;7.842;2022-11-15T15:58:51;9.77;;;6.10;;
17696;SDS011;8967;47.984;7.842;2022-11-15T16:01:18;10.63;;;6.60;;
17696;SDS011;8967;47.984;7.842;2022-11-15T16:03:47;11.32;;;5.80;;
17696;SDS011;8967;47.984;7.842;2022-11-15T16:06:33;11.43;;;5.85;;
17696;SDS011;8967;47.984;7.842;2022-11-15T16:09:03;10.65;;;6.07;;
17696;SDS011;8967;47.984;7.842;2022-11-15T16:11:33;11.02;;;6.80;;
17696;SDS011;8967;47.984;7.842;2022-11-15T16:14:02;13.50;;;6.28;;
17696;SDS011;8967;47.984;7.842;2022-11-15T16:16:29;10.88;;;5.75;;
17696;SDS011;8967;47.984;7.842;2022-11-15T16:18:57;13.05;;;6.32;;
17696;SDS011;8967;47.984;7.842;2022-11-15T16:21:25;11.45;;;6.07;;
17696;SDS011;8967;47.984;7.842;2022-11-15T16:23:52;8.38;;;5.63;;
17696;SDS011;8967;47.984;7.842;2022-11-15T16:26:20;10.73;;;5.13;;
17696;SDS011;8967;47.984;7.842;2022-11-15T16:28:52;7.22;;;5.03;;
17696;SDS011;8967;47.984;7.842;2022-11-15T16:31:19;13.50;;;5.50;;
17696;SDS011;8967;47.984;7.842;2022-11-15T16:33:47;9.45;;;5.10;;
17696;SDS011;8967;47.984;7.842;2022-11-15T16:36:18;7.55;;;5.45;;
17696;SDS011;8967;47.984;7.842;2022-11-15T16:38:46;7.00;;;4.55;;
17696;SDS011;8967;47.984;7.842;2022-11-15T16:41:13;7.00;;;4.63;;
17696;SDS011;8967;47.984;7.842;2022-11-15T16:43:43;6.75;;;5.10;;
17696;SDS011;8967;47.984;7.842;2022-11-15T16:46:13;7.35;;;4.80;;
17696;SDS011;8967;47.984;7.842;2022-11-15T16:48:42;8.48;;;5.55;;
17696;SDS011;8967;47.984;7.842;2022-11-15T16:51:09;8.98;;;5.97;;